Time;durP1;ratioP1;P1;durP2;ratioP2;P2;SDS_P1;SDS_P2;PMS_P1;PMS_P2;Temp;Humidity;BMP_temperature;BMP_pressure;BME280_temperature;BME280_humidity;BME280_pressure;Samples;Min_cycle;Max_cycle;Signal;HPM_P1;HPM_P2
2022/10/30 00:00:20;;;;;;;4.38;1.90;;;16.40;79.00;;;;;;5094170;28;20035;-70
2022/10/30 00:02:47;;;;;;;1.30;1.20;;;16.40;79.00;;;;;;5087807;28;20044;-68
2022/10/30 00:05:13;;;;;;;2.22;1.55;;;16.40;78.90;;;;;;5087769;28;20391;-69
2022/10/30 00:07:39;;;;;;;5.57;2.22;;;16.40;78.90;;;;;;5088747;28;20024;-72
2022/10/30 00:10:08;;;;;;;3.15;1.50;;;16.40;78.80;;;;;;5095236;28;20038;-73
2022/10/30 00:12:34;;;;;;;2.42;1.52;;;16.40;78.90;;;;;;5093262;28;20131;-71
2022/10/30 00:15:00;;;;;;;6.30;1.88;;;16.40;78.90;;;;;;5088963;28;20099;-70
2022/10/30 00:17:26;;;;;;;4.53;1.95;;;16.30;79.00;;;;;;5087948;28;20020;-70
2022/10/30 00:19:51;;;;;;;5.95;2.70;;;16.30;79.00;;;;;;5089621;28;20483;-70
2022/10/30 00:22:17;;;;;;;2.38;1.70;;;16.30;79.10;;;;;;5085718;28;20046;-72
2022/10/30 00:24:43;;;;;;;2.30;1.98;;;16.30;79.00;;;;;;5089347;28;20020;-70
2022/10/30 00:27:08;;;;;;;3.33;1.55;;;16.30;78.90;;;;;;5088511;28;20035;-69
2022/10/30 00:29:34;;;;;;;7.50;1.52;;;16.30;78.90;;;;;;5091821;28;20024;-70
2022/10/30 00:32:00;;;;;;;14.45;1.90;;;16.30;79.00;;;;;;5075368;28;20382;-70
2022/10/30 00:34:25;;;;;;;3.58;2.08;;;16.30;79.00;;;;;;5093721;28;20380;-70
2022/10/30 00:36:51;;;;;;;4.88;1.92;;;16.30;79.00;;;;;;5089295;28;20016;-70
2022/10/30 00:39:17;;;;;;;4.30;2.53;;;16.30;79.00;;;;;;5092591;28;20035;-71
2022/10/30 00:41:43;;;;;;;7.93;2.65;;;16.30;79.00;;;;;;5091741;28;20028;-69
2022/10/30 00:44:40;;;;;;;4.25;2.38;;;16.30;79.00;;;;;;5091024;28;20496;-69
2022/10/30 00:47:13;;;;;;;14.00;1.58;;;16.30;78.90;;;;;;5086324;28;20072;-70
2022/10/30 00:50:06;;;;;;;1.98;1.52;;;16.20;79.00;;;;;;5098985;28;20394;-72
2022/10/30 00:52:38;;;;;;;3.15;1.60;;;16.20;79.00;;;;;;5087014;28;20039;-68
2022/10/30 00:55:31;;;;;;;3.05;2.08;;;16.20;79.10;;;;;;5093080;28;20030;-72
2022/10/30 00:58:00;;;;;;;3.50;2.35;;;16.10;79.00;;;;;;5090362;28;20417;-72
2022/10/30 01:00:27;;;;;;;3.13;1.92;;;16.10;79.10;;;;;;5097010;28;20471;-69
2022/10/30 01:02:54;;;;;;;6.85;1.50;;;16.10;79.20;;;;;;5092379;28;20039;-69
2022/10/30 01:05:24;;;;;;;3.03;1.77;;;16.10;79.10;;;;;;5088234;28;20040;-69
2022/10/30 01:07:49;;;;;;;3.22;2.00;;;16.10;79.00;;;;;;5096345;28;20024;-69
2022/10/30 01:10:16;;;;;;;3.17;2.22;;;16.10;78.90;;;;;;5091301;28;20546;-69
2022/10/30 01:12:44;;;;;;;4.65;2.65;;;16.10;78.90;;;;;;5091755;28;20504;-69
2022/10/30 01:15:11;;;;;;;7.47;2.33;;;16.10;78.90;;;;;;5089770;28;20047;-70
2022/10/30 01:18:04;;;;;;;1.65;1.30;;;16.10;78.90;;;;;;5091989;28;20032;-70
2022/10/30 01:20:41;;;;;;;3.22;1.73;;;16.10;78.80;;;;;;5089183;28;20024;-69
2022/10/30 01:23:48;;;;;;;3.15;1.80;;;16.10;78.90;;;;;;5090988;28;20123;-69
2022/10/30 01:26:45;;;;;;;4.65;2.08;;;16.00;78.70;;;;;;5048795;28;20032;-69
2022/10/30 01:29:58;;;;;;;3.50;1.95;;;16.00;78.90;;;;;;5089754;28;20406;-69
2022/10/30 01:32:38;;;;;;;;;;;15.90;78.80;;;;;;5030622;28;20091;-69
2022/10/30 01:35:16;;;;;;;5.15;2.30;;;15.80;79.00;;;;;;5087157;28;20291;-71
2022/10/30 01:37:48;;;;;;;2.60;1.80;;;15.80;79.10;;;;;;5089854;28;20047;-69
2022/10/30 01:40:16;;;;;;;1.95;1.50;;;15.80;79.10;;;;;;5086981;28;20028;-69
2022/10/30 01:42:49;;;;;;;5.68;2.42;;;15.80;79.10;;;;;;5090332;28;20579;-69
2022/10/30 01:45:41;;;;;;;5.40;1.83;;;15.80;79.00;;;;;;5090323;28;20020;-69
2022/10/30 01:48:24;;;;;;;2.22;1.02;;;15.80;78.90;;;;;;5093432;28;20038;-70
2022/10/30 01:51:15;;;;;;;3.67;2.38;;;15.70;79.00;;;;;;5099573;28;20024;-69
2022/10/30 01:54:03;;;;;;;10.57;1.70;;;15.70;79.00;;;;;;5092670;28;20731;-70
2022/10/30 01:56:44;;;;;;;5.82;2.05;;;15.70;79.10;;;;;;5088439;28;20036;-69
2022/10/30 01:59:17;;;;;;;2.25;1.88;;;15.70;79.10;;;;;;5091876;28;20544;-70
2022/10/30 02:01:44;;;;;;;7.28;2.00;;;15.60;79.00;;;;;;5084685;28;20028;-69
2022/10/30 02:04:12;;;;;;;2.25;1.85;;;15.60;79.10;;;;;;5102842;28;20516;-69
2022/10/30 02:06:38;;;;;;;1.83;1.50;;;15.60;79.00;;;;;;5087670;28;20024;-69
2022/10/30 02:09:05;;;;;;;2.25;1.38;;;15.60;79.00;;;;;;5102126;28;20028;-69
2022/10/30 02:11:32;;;;;;;8.60;1.67;;;15.60;79.00;;;;;;5089648;28;20060;-71
2022/10/30 02:14:01;;;;;;;2.97;2.20;;;15.60;79.00;;;;;;5078744;28;20038;-71
2022/10/30 02:16:27;;;;;;;3.65;1.92;;;15.60;79.10;;;;;;5090904;28;20024;-71
2022/10/30 02:18:53;;;;;;;2.95;1.92;;;15.50;79.00;;;;;;5090633;28;20487;-69
2022/10/30 02:21:19;;;;;;;5.45;1.65;;;15.50;79.00;;;;;;5093967;28;20063;-69
2022/10/30 02:23:44;;;;;;;7.32;1.92;;;15.50;79.00;;;;;;5089204;28;20040;-69
2022/10/30 02:26:10;;;;;;;6.25;1.30;;;15.50;79.00;;;;;;5088490;28;20114;-70
2022/10/30 02:28:36;;;;;;;2.83;1.77;;;15.50;78.90;;;;;;5075469;28;20483;-71
2022/10/30 02:31:01;;;;;;;2.80;1.88;;;15.40;78.90;;;;;;5071623;28;20084;-71
2022/10/30 02:33:27;;;;;;;3.33;1.58;;;15.40;78.90;;;;;;5088767;28;20376;-71
2022/10/30 02:35:53;;;;;;;2.75;1.85;;;15.40;79.00;;;;;;5087291;28;20155;-71
2022/10/30 02:38:19;;;;;;;4.55;2.08;;;15.40;79.00;;;;;;5090324;28;20024;-71
2022/10/30 02:40:45;;;;;;;3.67;1.70;;;15.40;79.00;;;;;;5088400;28;20016;-71
2022/10/30 02:43:10;;;;;;;1.98;1.77;;;15.40;79.00;;;;;;5088425;28;20029;-72
2022/10/30 02:45:36;;;;;;;3.83;2.00;;;15.30;79.50;;;;;;5094179;28;20156;-71
2022/10/30 02:48:01;;;;;;;7.90;2.15;;;15.30;78.90;;;;;;5088545;28;20356;-69
2022/10/30 02:50:27;;;;;;;4.05;2.28;;;15.30;79.00;;;;;;5094032;28;20147;-69
2022/10/30 02:52:53;;;;;;;2.15;1.65;;;15.20;79.00;;;;;;5089864;28;20391;-70
2022/10/30 02:55:18;;;;;;;5.32;2.58;;;15.30;79.10;;;;;;5068784;28;20256;-71
2022/10/30 02:57:44;;;;;;;3.65;1.92;;;15.20;79.10;;;;;;5068987;28;20487;-70
2022/10/30 03:00:11;;;;;;;2.35;1.42;;;15.20;79.10;;;;;;5085149;28;20028;-72
2022/10/30 03:02:36;;;;;;;2.70;1.95;;;15.20;79.20;;;;;;5088670;28;20028;-72
2022/10/30 03:05:02;;;;;;;3.63;1.90;;;15.20;79.10;;;;;;5081930;28;20090;-71
2022/10/30 03:07:28;;;;;;;4.65;2.38;;;15.20;79.00;;;;;;5090404;28;20026;-71
2022/10/30 03:09:53;;;;;;;4.85;2.15;;;15.20;79.00;;;;;;5086322;28;20105;-69
2022/10/30 03:12:20;;;;;;;3.00;1.98;;;15.10;79.10;;;;;;5088239;28;20491;-70
2022/10/30 03:14:46;;;;;;;5.32;2.30;;;15.10;79.10;;;;;;5088377;28;20471;-69
2022/10/30 03:17:11;;;;;;;3.25;2.08;;;15.10;79.10;;;;;;5089446;28;20123;-72
2022/10/30 03:19:37;;;;;;;4.40;2.85;;;15.10;79.20;;;;;;5088163;28;20120;-71
2022/10/30 03:22:03;;;;;;;5.90;2.72;;;15.00;79.20;;;;;;5080339;28;20035;-72
2022/10/30 03:24:28;;;;;;;4.60;2.00;;;15.00;79.30;;;;;;5088673;28;20038;-72
2022/10/30 03:26:54;;;;;;;5.43;2.38;;;15.00;79.30;;;;;;5090835;28;20028;-70
2022/10/30 03:29:20;;;;;;;2.78;2.03;;;15.00;79.20;;;;;;5070303;28;20573;-71
2022/10/30 03:31:45;;;;;;;4.85;1.85;;;15.00;79.30;;;;;;5096032;28;20044;-72
2022/10/30 03:34:11;;;;;;;5.15;1.85;;;14.90;79.20;;;;;;5089024;28;20035;-72
2022/10/30 03:36:37;;;;;;;4.78;2.53;;;15.00;79.20;;;;;;5088436;28;20055;-69
2022/10/30 03:39:03;;;;;;;4.20;2.53;;;14.90;79.20;;;;;;5080332;28;20375;-69
2022/10/30 03:41:29;;;;;;;8.23;2.17;;;14.90;79.20;;;;;;5088319;28;20020;-70
2022/10/30 03:43:55;;;;;;;2.78;2.22;;;14.90;79.10;;;;;;5074440;28;20032;-69
2022/10/30 03:46:20;;;;;;;11.85;2.05;;;14.90;79.10;;;;;;5091917;28;20028;-71
2022/10/30 03:48:49;;;;;;;3.03;2.00;;;14.90;79.10;;;;;;5088072;28;20077;-71
2022/10/30 03:51:15;;;;;;;1.80;1.63;;;14.90;79.10;;;;;;5093865;28;20440;-72
2022/10/30 03:53:41;;;;;;;5.88;2.58;;;14.90;79.20;;;;;;5096759;28;20443;-72
2022/10/30 03:56:08;;;;;;;3.85;2.35;;;14.80;79.30;;;;;;5085180;28;20024;-71
2022/10/30 03:58:34;;;;;;;3.35;1.90;;;14.80;79.30;;;;;;5090546;28;20142;-71
2022/10/30 04:01:01;;;;;;;2.70;2.30;;;14.80;79.30;;;;;;5089674;28;20120;-71
2022/10/30 04:03:27;;;;;;;5.63;1.98;;;14.80;79.40;;;;;;5103209;28;20036;-72
2022/10/30 04:05:53;;;;;;;5.55;2.17;;;14.80;79.40;;;;;;5092792;28;20398;-68
2022/10/30 04:08:19;;;;;;;5.57;1.98;;;14.80;79.40;;;;;;5074043;28;20052;-68
2022/10/30 04:10:46;;;;;;;3.38;1.60;;;14.80;79.40;;;;;;5088745;28;20376;-68
2022/10/30 04:13:14;;;;;;;1.30;1.20;;;14.80;79.40;;;;;;5091342;28;20040;-68
2022/10/30 04:15:39;;;;;;;4.78;2.13;;;14.80;79.40;;;;;;5092854;28;20073;-70
2022/10/30 04:18:06;;;;;;;3.47;2.42;;;14.80;79.40;;;;;;5094447;28;20040;-69
2022/10/30 04:20:32;;;;;;;3.22;1.85;;;14.80;79.50;;;;;;5075390;28;20107;-69
2022/10/30 04:23:03;;;;;;;3.22;1.88;;;14.80;79.50;;;;;;5086886;28;20036;-68
2022/10/30 04:25:29;;;;;;;2.92;1.67;;;14.80;79.50;;;;;;5088292;28;20027;-71
2022/10/30 04:27:55;;;;;;;7.80;2.33;;;14.70;79.60;;;;;;5093087;28;20039;-71
2022/10/30 04:30:23;;;;;;;4.72;2.13;;;14.80;79.60;;;;;;5082120;28;20024;-72
2022/10/30 04:32:52;;;;;;;3.03;1.90;;;14.80;79.50;;;;;;5091331;28;20364;-72
2022/10/30 04:35:19;;;;;;;3.55;1.98;;;14.80;79.50;;;;;;5092488;28;20028;-71
2022/10/30 04:37:55;;;;;;;4.90;2.38;;;14.80;79.60;;;;;;5091816;28;20367;-72
2022/10/30 04:40:26;;;;;;;3.30;2.30;;;14.80;79.60;;;;;;5092728;28;20024;-71
2022/10/30 04:42:52;;;;;;;4.35;2.30;;;14.70;79.50;;;;;;5090650;28;20032;-72
2022/10/30 04:45:18;;;;;;;3.65;2.22;;;14.70;79.50;;;;;;5091943;28;20059;-72
2022/10/30 04:47:45;;;;;;;2.40;1.85;;;14.70;79.50;;;;;;5090112;28;20042;-72
2022/10/30 04:50:10;;;;;;;5.60;2.08;;;14.60;79.50;;;;;;5090510;28;20054;-71
2022/10/30 04:52:36;;;;;;;6.68;2.35;;;14.70;79.60;;;;;;5094352;28;20032;-71
2022/10/30 04:55:03;;;;;;;1.85;1.58;;;14.70;79.70;;;;;;5091184;28;20382;-69
2022/10/30 04:57:30;;;;;;;2.40;1.80;;;14.70;79.70;;;;;;5105471;28;20184;-71
2022/10/30 04:59:56;;;;;;;3.42;1.83;;;14.60;80.20;;;;;;5080814;28;20031;-70
2022/10/30 05:02:22;;;;;;;4.78;1.88;;;14.60;79.60;;;;;;5087035;28;20111;-70
2022/10/30 05:04:47;;;;;;;6.15;2.33;;;14.60;79.50;;;;;;5091785;28;20486;-69
2022/10/30 05:07:14;;;;;;;3.28;2.33;;;14.60;79.60;;;;;;5083596;28;20028;-69
2022/10/30 05:09:40;;;;;;;4.50;2.22;;;14.60;79.60;;;;;;5071952;28;20017;-70
2022/10/30 05:12:06;;;;;;;4.40;2.17;;;14.50;79.60;;;;;;5089717;28;20505;-70
2022/10/30 05:14:32;;;;;;;3.92;1.52;;;14.50;79.70;;;;;;5078803;28;20452;-72
2022/10/30 05:16:58;;;;;;;3.15;1.90;;;14.50;79.60;;;;;;5091212;28;20376;-69
2022/10/30 05:19:24;;;;;;;7.07;2.30;;;14.50;79.60;;;;;;5089455;28;20450;-69
2022/10/30 05:21:50;;;;;;;4.13;2.20;;;14.50;79.50;;;;;;5089414;28;20074;-71
2022/10/30 05:24:16;;;;;;;5.63;2.25;;;14.50;79.50;;;;;;5087599;28;20862;-69
2022/10/30 05:26:42;;;;;;;4.30;2.83;;;14.40;79.40;;;;;;5070324;28;20119;-69
2022/10/30 05:29:08;;;;;;;3.40;1.88;;;14.40;79.50;;;;;;5085473;28;20035;-69
2022/10/30 05:31:33;;;;;;;4.03;2.60;;;14.40;79.60;;;;;;5082447;28;20036;-70
2022/10/30 05:33:59;;;;;;;3.40;2.08;;;14.40;79.60;;;;;;5085630;28;20035;-69
2022/10/30 05:36:25;;;;;;;4.38;2.55;;;14.40;79.70;;;;;;5088388;28;20028;-69
2022/10/30 05:38:51;;;;;;;11.82;2.55;;;14.30;79.60;;;;;;5072722;28;20023;-70
2022/10/30 05:41:16;;;;;;;3.22;1.90;;;14.40;79.70;;;;;;5089505;28;20031;-69
2022/10/30 05:43:42;;;;;;;3.40;2.03;;;14.40;79.90;;;;;;5099383;28;20040;-69
2022/10/30 05:46:08;;;;;;;4.53;2.25;;;14.40;79.90;;;;;;5090552;28;20094;-69
2022/10/30 05:48:33;;;;;;;2.72;1.58;;;14.30;79.80;;;;;;5091893;28;20412;-69
2022/10/30 05:50:59;;;;;;;1.77;1.67;;;14.30;79.90;;;;;;5081547;28;20036;-69
2022/10/30 05:53:24;;;;;;;3.95;2.10;;;14.30;79.90;;;;;;5085125;28;20035;-69
2022/10/30 05:55:50;;;;;;;3.72;2.00;;;14.30;79.90;;;;;;5088906;28;20115;-70
2022/10/30 05:58:16;;;;;;;3.22;1.55;;;14.30;79.90;;;;;;5077324;28;20067;-71
2022/10/30 06:00:43;;;;;;;2.88;2.58;;;14.30;79.80;;;;;;5103834;28;20024;-71
2022/10/30 06:03:12;;;;;;;6.72;2.35;;;14.20;79.70;;;;;;5100274;28;20051;-71
2022/10/30 06:05:38;;;;;;;2.47;1.85;;;14.20;79.70;;;;;;5098268;28;20023;-71
2022/10/30 06:08:05;;;;;;;6.00;2.15;;;14.20;80.30;;;;;;5095817;28;20481;-69
2022/10/30 06:10:31;;;;;;;3.35;2.28;;;14.20;79.80;;;;;;5086907;28;20456;-72
2022/10/30 06:13:02;;;;;;;5.63;2.85;;;14.20;79.80;;;;;;5092623;28;20064;-71
2022/10/30 06:15:28;;;;;;;4.90;1.95;;;14.20;79.70;;;;;;5102763;28;20028;-71
2022/10/30 06:17:55;;;;;;;1.67;1.55;;;14.20;79.80;;;;;;5096280;28;20024;-71
2022/10/30 06:20:23;;;;;;;2.97;1.88;;;14.20;79.80;;;;;;5106722;28;20685;-71
2022/10/30 06:23:06;;;;;;;3.45;1.85;;;14.20;79.80;;;;;;5096216;28;20034;-71
2022/10/30 06:25:34;;;;;;;3.42;2.13;;;14.20;79.90;;;;;;5077819;28;20537;-71
2022/10/30 06:28:00;;;;;;;6.85;2.42;;;14.10;79.90;;;;;;5087948;28;20055;-71
2022/10/30 06:30:27;;;;;;;4.90;2.58;;;14.10;79.90;;;;;;5093885;28;20031;-71
2022/10/30 06:33:00;;;;;;;3.35;2.38;;;14.10;79.90;;;;;;5093832;28;20050;-71
2022/10/30 06:35:27;;;;;;;4.40;2.15;;;14.10;80.50;;;;;;5089111;28;20028;-69
2022/10/30 06:37:54;;;;;;;13.85;2.50;;;14.00;80.00;;;;;;5097262;28;20453;-69
2022/10/30 06:40:20;;;;;;;2.40;1.73;;;14.10;80.10;;;;;;5078827;28;20012;-71
2022/10/30 06:42:48;;;;;;;4.70;2.50;;;14.10;80.10;;;;;;5088814;28;20028;-71
2022/10/30 06:45:15;;;;;;;6.75;2.08;;;14.10;80.10;;;;;;5082867;28;20512;-71
2022/10/30 06:47:41;;;;;;;3.30;2.53;;;14.10;80.00;;;;;;5089680;28;20019;-69
2022/10/30 06:50:10;;;;;;;18.45;2.88;;;14.00;79.90;;;;;;5097003;28;20052;-71
2022/10/30 06:52:36;;;;;;;3.67;2.40;;;14.10;80.00;;;;;;5107279;28;20059;-69
2022/10/30 06:55:02;;;;;;;4.93;2.83;;;14.00;79.90;;;;;;5100052;28;20516;-71
2022/10/30 06:57:27;;;;;;;5.70;2.67;;;14.00;79.90;;;;;;5095538;28;20052;-72
2022/10/30 06:59:53;;;;;;;4.70;2.42;;;14.00;80.30;;;;;;5115275;27;20088;-70
2022/10/30 07:02:19;;;;;;;6.47;2.90;;;14.00;80.00;;;;;;5091329;28;20058;-70
2022/10/30 07:04:45;;;;;;;4.53;2.20;;;14.00;80.00;;;;;;5109623;27;20031;-70
2022/10/30 07:07:12;;;;;;;5.60;2.40;;;14.10;80.10;;;;;;5095434;28;20365;-71
2022/10/30 07:09:37;;;;;;;2.22;1.77;;;14.10;80.00;;;;;;5099229;28;20028;-73
2022/10/30 07:12:03;;;;;;;4.30;2.10;;;14.10;80.00;;;;;;5105036;28;20231;-72
2022/10/30 07:14:29;;;;;;;5.28;1.88;;;14.10;80.00;;;;;;5100789;28;20445;-66
2022/10/30 07:16:55;;;;;;;10.23;2.88;;;14.10;80.10;;;;;;5078607;28;20036;-67
2022/10/30 07:19:21;;;;;;;3.55;2.50;;;14.10;80.10;;;;;;5095831;28;20074;-68
2022/10/30 07:21:47;;;;;;;2.15;1.80;;;14.10;80.00;;;;;;5071101;28;20012;-66
2022/10/30 07:24:13;;;;;;;4.50;2.47;;;14.20;80.10;;;;;;5099452;28;20036;-67
2022/10/30 07:26:38;;;;;;;5.93;2.70;;;14.20;80.00;;;;;;5091522;28;20482;-66
2022/10/30 07:29:04;;;;;;;3.67;2.50;;;14.20;80.00;;;;;;5104313;28;20028;-69
2022/10/30 07:31:30;;;;;;;2.88;2.40;;;14.20;80.00;;;;;;5095752;28;20479;-69
2022/10/30 07:33:56;;;;;;;3.38;2.13;;;14.30;80.10;;;;;;5110208;28;20119;-68
2022/10/30 07:36:22;;;;;;;3.80;3.28;;;14.30;80.10;;;;;;5095173;28;20021;-71
2022/10/30 07:38:49;;;;;;;4.45;2.47;;;14.30;80.10;;;;;;5107340;28;20020;-69
2022/10/30 07:41:16;;;;;;;3.15;2.00;;;14.40;80.00;;;;;;5109909;28;20450;-70
2022/10/30 07:43:42;;;;;;;4.10;2.78;;;14.40;80.10;;;;;;5109923;28;20107;-70
2022/10/30 07:46:08;;;;;;;5.10;2.92;;;14.40;80.20;;;;;;5093238;28;20287;-70
2022/10/30 07:48:33;;;;;;;2.95;2.45;;;14.40;80.20;;;;;;5097589;28;20054;-69
2022/10/30 07:50:59;;;;;;;2.92;2.03;;;14.50;80.20;;;;;;5106334;28;20024;-70
2022/10/30 07:53:25;;;;;;;4.93;1.92;;;14.60;80.20;;;;;;5087683;28;20036;-70
2022/10/30 07:55:50;;;;;;;4.05;2.47;;;14.70;80.10;;;;;;5088247;28;20031;-72
2022/10/30 07:58:16;;;;;;;3.42;2.33;;;14.80;80.00;;;;;;5100584;28;20066;-71
2022/10/30 08:00:42;;;;;;;3.88;2.47;;;14.90;79.90;;;;;;5088069;28;20024;-70
2022/10/30 08:03:09;;;;;;;5.20;2.10;;;15.00;80.00;;;;;;5090950;28;20111;-70
2022/10/30 08:05:35;;;;;;;3.72;2.33;;;15.00;80.00;;;;;;5085027;28;20025;-69
2022/10/30 08:08:01;;;;;;;3.80;2.38;;;15.00;80.00;;;;;;5090383;28;20383;-70
2022/10/30 08:10:27;;;;;;;6.57;2.50;;;15.00;80.10;;;;;;5085897;28;20035;-71
2022/10/30 08:12:53;;;;;;;3.13;2.25;;;15.10;80.10;;;;;;5088955;28;20040;-72
2022/10/30 08:15:19;;;;;;;4.90;3.08;;;15.20;80.10;;;;;;5083518;28;20365;-67
2022/10/30 08:17:46;;;;;;;4.63;2.95;;;15.30;80.20;;;;;;5089264;28;20494;-66
2022/10/30 08:20:14;;;;;;;6.85;2.92;;;15.40;80.20;;;;;;5088183;28;20702;-66
2022/10/30 08:22:47;;;;;;;2.45;2.17;;;15.50;80.10;;;;;;5085823;28;20031;-66
2022/10/30 08:25:13;;;;;;;6.65;3.05;;;15.60;80.60;;;;;;5089938;28;20031;-65
2022/10/30 08:27:47;;;;;;;3.30;2.70;;;15.70;80.00;;;;;;5082766;28;20339;-67
2022/10/30 08:30:13;;;;;;;3.35;2.38;;;15.70;79.90;;;;;;5086664;28;20028;-66
2022/10/30 08:32:39;;;;;;;4.18;2.40;;;15.80;80.00;;;;;;5087956;28;20043;-66
2022/10/30 08:35:05;;;;;;;4.35;3.25;;;15.80;80.10;;;;;;5088876;28;20489;-72
2022/10/30 08:37:30;;;;;;;5.10;2.78;;;15.80;80.20;;;;;;5070154;28;20032;-65
2022/10/30 08:39:56;;;;;;;3.45;2.92;;;15.90;80.30;;;;;;5086466;28;20031;-65
2022/10/30 08:42:22;;;;;;;3.30;2.40;;;16.00;80.30;;;;;;5087998;28;20024;-66
2022/10/30 08:44:47;;;;;;;4.72;3.15;;;16.00;80.20;;;;;;5089047;28;20032;-68
2022/10/30 08:47:13;;;;;;;8.32;3.30;;;16.10;80.10;;;;;;5087375;28;20039;-66
2022/10/30 08:49:38;;;;;;;3.45;2.65;;;16.30;80.10;;;;;;5097156;28;20027;-67
2022/10/30 08:52:07;;;;;;;2.95;2.30;;;16.40;80.00;;;;;;5078332;28;20131;-71
2022/10/30 08:54:33;;;;;;;4.47;2.70;;;16.50;79.80;;;;;;5091219;28;20040;-70
2022/10/30 08:56:59;;;;;;;7.93;3.35;;;16.60;79.60;;;;;;5091735;28;20059;-70
2022/10/30 08:59:24;;;;;;;6.72;3.00;;;16.70;79.40;;;;;;5092174;28;20032;-67
2022/10/30 09:01:50;;;;;;;3.50;2.78;;;16.80;79.30;;;;;;5090940;28;20047;-67
2022/10/30 09:04:16;;;;;;;6.05;2.92;;;16.80;79.20;;;;;;5091251;28;20060;-68
2022/10/30 09:06:41;;;;;;;11.60;2.58;;;16.90;79.30;;;;;;5093683;28;20432;-67
2022/10/30 09:09:07;;;;;;;3.80;2.22;;;17.00;79.30;;;;;;5073288;28;20036;-68
2022/10/30 09:11:33;;;;;;;4.65;3.03;;;17.10;79.20;;;;;;5099326;28;20568;-68
2022/10/30 09:13:58;;;;;;;5.15;3.13;;;17.20;79.10;;;;;;5090713;28;20119;-69
2022/10/30 09:16:24;;;;;;;3.42;2.70;;;17.30;78.90;;;;;;5091233;28;20034;-67
2022/10/30 09:18:50;;;;;;;5.32;2.75;;;17.40;78.80;;;;;;5083913;28;20560;-67
2022/10/30 09:21:15;;;;;;;5.07;2.33;;;17.50;78.60;;;;;;5086657;28;20024;-66
2022/10/30 09:23:42;;;;;;;3.50;2.78;;;17.70;78.40;;;;;;5098094;28;20102;-68
2022/10/30 09:26:09;;;;;;;4.75;3.10;;;17.80;78.20;;;;;;5091527;28;20264;-67
2022/10/30 09:28:35;;;;;;;4.80;3.30;;;17.90;78.10;;;;;;5088755;28;20032;-68
2022/10/30 09:31:01;;;;;;;4.05;2.90;;;18.00;78.00;;;;;;5089609;28;20054;-67
2022/10/30 09:33:26;;;;;;;6.10;4.00;;;18.20;77.80;;;;;;5090154;28;20024;-67
2022/10/30 09:35:52;;;;;;;3.50;2.67;;;18.20;77.60;;;;;;5077886;28;20480;-68
2022/10/30 09:38:18;;;;;;;3.30;2.78;;;18.40;77.60;;;;;;5081305;28;20082;-69
2022/10/30 09:41:14;;;;;;;4.78;2.78;;;18.50;77.50;;;;;;5096978;28;20028;-67
2022/10/30 09:44:23;;;;;;;4.57;2.58;;;18.70;77.30;;;;;;5090911;28;20468;-68
2022/10/30 09:46:55;;;;;;;5.90;2.60;;;18.80;77.10;;;;;;5090810;28;20505;-67
2022/10/30 09:49:38;;;;;;;4.80;2.60;;;19.00;76.80;;;;;;5085888;28;20481;-70
2022/10/30 09:52:41;;;;;;;7.45;3.15;;;19.10;76.60;;;;;;5087870;28;20281;-70
2022/10/30 09:55:37;;;;;;;6.50;4.15;;;19.30;76.50;;;;;;5096859;28;20036;-70
2022/10/30 09:58:17;;;;;;;9.45;3.15;;;19.40;76.30;;;;;;5093534;28;20052;-68
2022/10/30 10:01:21;;;;;;;6.22;2.70;;;19.60;76.10;;;;;;5090791;28;20035;-72
2022/10/30 10:03:55;;;;;;;4.32;3.00;;;19.80;75.80;;;;;;5084163;28;20150;-72
2022/10/30 10:06:23;;;;;;;4.75;2.67;;;19.90;75.50;;;;;;5090244;28;20020;-72
2022/10/30 10:09:15;;;;;;;3.60;3.13;;;20.10;75.20;;;;;;5087747;28;20031;-70
2022/10/30 10:11:47;;;;;;;6.53;3.40;;;20.30;75.00;;;;;;5074441;28;20028;-71
2022/10/30 10:14:31;;;;;;;3.70;2.53;;;20.40;74.60;;;;;;5082427;28;20032;-70
2022/10/30 10:17:01;;;;;;;4.72;2.63;;;20.60;74.20;;;;;;5090207;28;20027;-68
2022/10/30 10:19:36;;;;;;;4.80;2.38;;;20.70;73.70;;;;;;5091861;28;20020;-68
2022/10/30 10:22:13;;;;;;;7.35;2.47;;;20.70;73.30;;;;;;5088650;28;20062;-69
2022/10/30 10:24:43;;;;;;;4.43;2.95;;;20.60;73.50;;;;;;5086589;28;20027;-68
2022/10/30 10:27:39;;;;;;;6.35;3.17;;;20.50;73.60;;;;;;5088935;28;20040;-68
2022/10/30 10:30:22;;;;;;;3.33;2.58;;;20.50;73.80;;;;;;5086403;28;20450;-68
2022/10/30 10:33:17;;;;;;;5.03;2.47;;;20.60;73.50;;;;;;5090871;28;20490;-69
2022/10/30 10:35:54;;;;;;;3.78;2.97;;;20.70;73.30;;;;;;5088673;28;20024;-68
2022/10/30 10:38:52;;;;;;;6.38;3.40;;;21.00;72.60;;;;;;5091050;28;20023;-68
2022/10/30 10:41:26;;;;;;;3.33;1.83;;;21.30;72.00;;;;;;5069593;28;20036;-71
2022/10/30 10:44:24;;;;;;;6.20;2.47;;;21.50;71.40;;;;;;5089440;28;20348;-71
2022/10/30 10:46:56;;;;;;;3.67;2.97;;;21.60;70.90;;;;;;5084435;28;20047;-70
2022/10/30 10:49:47;;;;;;;4.28;2.50;;;21.50;70.90;;;;;;5089249;28;20084;-70
2022/10/30 10:52:46;;;;;;;3.10;2.40;;;21.30;71.40;;;;;;5094279;28;20043;-71
2022/10/30 10:55:18;;;;;;;7.70;2.38;;;21.30;71.70;;;;;;5084493;28;20104;-72
2022/10/30 10:57:45;;;;;;;9.40;3.00;;;21.50;71.40;;;;;;5091400;28;20043;-71
2022/10/30 11:00:17;;;;;;;3.33;2.83;;;21.60;71.10;;;;;;5096505;28;20068;-71
2022/10/30 11:02:46;;;;;;;4.50;2.72;;;21.80;70.70;;;;;;5105505;28;20035;-71
2022/10/30 11:05:11;;;;;;;4.68;2.40;;;21.90;70.40;;;;;;5108268;28;20020;-68
2022/10/30 11:07:46;;;;;;;9.43;3.45;;;22.10;70.20;;;;;;5100632;28;20035;-68
2022/10/30 11:10:14;;;;;;;5.03;3.10;;;22.30;69.70;;;;;;5086959;28;20107;-68
2022/10/30 11:12:40;;;;;;;3.03;2.08;;;22.30;69.00;;;;;;5089189;28;20044;-68
2022/10/30 11:15:44;;;;;;;2.78;2.30;;;22.30;69.00;;;;;;5102563;28;20024;-72
2022/10/30 11:18:10;;;;;;;4.68;2.40;;;22.60;69.00;;;;;;5087266;28;20510;-71
2022/10/30 11:20:56;;;;;;;2.53;1.27;;;22.90;68.40;;;;;;5087997;28;20119;-68
2022/10/30 11:23:38;;;;;;;3.80;2.55;;;23.10;67.80;;;;;;5088982;28;20031;-71
2022/10/30 11:26:24;;;;;;;;;;;23.40;66.80;;;;;;5089025;28;20035;-67
2022/10/30 11:28:53;;;;;;;7.15;2.70;;;23.50;66.30;;;;;;5089212;28;20110;-67
2022/10/30 11:31:34;;;;;;;7.93;2.85;;;23.50;65.60;;;;;;5087557;28;20058;-67
2022/10/30 11:34:16;;;;;;;7.97;2.25;;;23.50;65.40;;;;;;5082093;28;20024;-68
2022/10/30 11:36:42;;;;;;;5.63;2.17;;;23.50;65.60;;;;;;5086833;28;20384;-66
2022/10/30 11:39:17;;;;;;;2.72;2.05;;;23.90;65.30;;;;;;5090286;28;20130;-67
2022/10/30 11:41:57;;;;;;;2.25;1.60;;;24.40;64.60;;;;;;5085382;28;20027;-67
2022/10/30 11:44:58;;;;;;;2.70;2.17;;;24.90;63.20;;;;;;5089000;28;20073;-71
2022/10/30 11:47:45;;;;;;;4.88;2.10;;;25.90;61.30;;;;;;5076917;28;20032;-70
2022/10/30 11:50:26;;;;;;;3.72;2.20;;;27.00;59.30;;;;;;5081481;28;20105;-71
2022/10/30 11:53:20;;;;;;;4.43;2.33;;;27.80;57.40;;;;;;5094272;28;20044;-71
2022/10/30 11:55:47;;;;;;;4.95;2.83;;;28.20;55.90;;;;;;5081243;28;20047;-69
2022/10/30 11:58:33;;;;;;;9.00;2.40;;;28.50;55.20;;;;;;5087281;28;20056;-69
2022/10/30 12:01:02;;;;;;;3.67;1.83;;;28.90;54.50;;;;;;5084930;28;20463;-69
2022/10/30 12:03:34;;;;;;;2.25;1.73;;;29.90;53.10;;;;;;5088464;28;20028;-69
2022/10/30 12:06:22;;;;;;;3.05;1.45;;;30.60;51.50;;;;;;5088485;28;20031;-70
2022/10/30 12:09:20;;;;;;;2.80;1.95;;;31.00;50.30;;;;;;5087810;28;20406;-69
2022/10/30 12:11:47;;;;;;;3.42;2.25;;;31.30;49.60;;;;;;5084218;28;20354;-69
2022/10/30 12:14:21;;;;;;;2.80;1.88;;;31.40;49.20;;;;;;5096266;28;20020;-69
2022/10/30 12:16:50;;;;;;;2.97;2.13;;;31.70;49.00;;;;;;5088421;28;20028;-69
2022/10/30 12:19:18;;;;;;;4.32;1.90;;;32.00;48.00;;;;;;5087759;28;20016;-69
2022/10/30 12:21:49;;;;;;;3.72;2.28;;;32.10;47.70;;;;;;5086738;28;20711;-70
2022/10/30 12:24:36;;;;;;;3.58;2.47;;;32.00;47.50;;;;;;5092733;28;20497;-69
2022/10/30 12:27:11;;;;;;;3.60;1.80;;;31.30;48.00;;;;;;5086061;28;20028;-69
2022/10/30 12:29:53;;;;;;;2.20;1.70;;;30.90;48.70;;;;;;5090465;27;20347;-69
2022/10/30 12:32:22;;;;;;;7.13;2.40;;;30.50;49.30;;;;;;5083712;28;20034;-69
2022/10/30 12:34:54;;;;;;;4.03;1.92;;;30.20;49.60;;;;;;5091187;28;20298;-68
2022/10/30 12:37:35;;;;;;;4.45;1.85;;;29.90;49.70;;;;;;5087105;28;20028;-68
2022/10/30 12:40:07;;;;;;;1.80;1.48;;;29.20;50.30;;;;;;5084199;28;20450;-68
2022/10/30 12:42:41;;;;;;;;;;;28.50;51.90;;;;;;5093770;28;20052;-68
2022/10/30 12:45:22;;;;;;;2.78;1.80;;;27.60;52.60;;;;;;5091376;28;19930;-70
2022/10/30 12:48:13;;;;;;;2.70;1.92;;;26.90;54.00;;;;;;5084238;28;20051;-70
2022/10/30 12:50:50;;;;;;;2.15;1.20;;;26.20;55.30;;;;;;5090811;28;20043;-65
2022/10/30 12:53:30;;;;;;;3.85;1.95;;;25.70;56.40;;;;;;5093074;28;20032;-65
2022/10/30 12:56:05;;;;;;;4.95;2.10;;;25.20;57.20;;;;;;5098116;28;20027;-66
2022/10/30 12:58:54;;;;;;;4.32;2.00;;;24.90;58.00;;;;;;5090615;28;20036;-66
2022/10/30 13:01:31;;;;;;;4.75;1.70;;;24.50;58.70;;;;;;5043149;28;20411;-66
2022/10/30 13:04:13;;;;;;;3.35;1.80;;;24.20;59.30;;;;;;5091770;28;20022;-66
2022/10/30 13:06:50;;;;;;;5.80;1.77;;;24.00;60.00;;;;;;5084351;28;20028;-66